Time;durP1;ratioP1;P1;durP2;ratioP2;P2;SDS_P1;SDS_P2;PMS_P1;PMS_P2;Temp;Humidity;BMP_temperature;BMP_pressure;BME280_temperature;BME280_humidity;BME280_pressure;Samples;Min_cycle;Max_cycle;Signal;HPM_P1;HPM_P2
2024/01/16 00:01:00;;;;;;;4.28;1.85;;;;;;;-2.09;64.02;99795.63;5000093;28;20597;-48
2024/01/16 00:03:27;;;;;;;6.32;2.22;;;;;;;-2.09;64.04;99795.63;5005168;28;20562;-50
2024/01/16 00:05:53;;;;;;;4.68;3.85;;;;;;;-2.07;64.02;99796.59;4999720;28;20046;-47
2024/01/16 00:08:21;;;;;;;5.88;2.90;;;;;;;-2.05;63.91;99783.09;5001880;28;20050;-49
2024/01/16 00:10:48;;;;;;;4.72;2.47;;;;;;;-2.05;64.12;99780.56;5002516;28;20078;-50
2024/01/16 00:13:15;;;;;;;6.63;3.20;;;;;;;-2.04;63.66;99777.19;5000092;28;20046;-49
2024/01/16 00:15:41;;;;;;;4.75;1.92;;;;;;;-2.04;64.12;99784.81;5003608;28;20053;-48
2024/01/16 00:18:08;;;;;;;7.05;1.95;;;;;;;-2.03;63.74;99778.97;5005791;28;20501;-52
2024/01/16 00:20:37;;;;;;;8.98;3.22;;;;;;;-2.01;64.18;99779.88;4992258;28;20077;-48
2024/01/16 00:23:03;;;;;;;6.70;2.78;;;;;;;-2.01;63.63;99777.34;5001679;28;20045;-51
2024/01/16 00:25:32;;;;;;;4.43;1.80;;;;;;;-2.00;63.87;99776.53;4998344;28;20045;-50
2024/01/16 00:27:58;;;;;;;5.90;3.78;;;;;;;-1.98;63.63;99770.75;4999144;28;20053;-48
2024/01/16 00:30:25;;;;;;;3.67;2.38;;;;;;;-1.97;64.17;99766.53;5004267;28;20522;-53
2024/01/16 00:32:52;;;;;;;8.07;2.05;;;;;;;-1.98;63.44;99763.13;5001126;28;20065;-50
2024/01/16 00:35:18;;;;;;;8.15;3.00;;;;;;;-1.95;63.58;99767.47;5004409;28;20548;-48
2024/01/16 00:37:45;;;;;;;7.35;2.45;;;;;;;-1.94;63.67;99759.03;4998147;28;20133;-46
2024/01/16 00:40:12;;;;;;;7.57;3.00;;;;;;;-1.96;63.93;99761.50;4997536;28;20520;-49
2024/01/16 00:42:39;;;;;;;10.98;4.03;;;;;;;-1.92;63.87;99760.00;5001743;28;20046;-44
2024/01/16 00:45:06;;;;;;;10.77;3.88;;;;;;;-1.92;63.69;99752.38;4999346;28;20104;-48
2024/01/16 00:47:32;;;;;;;14.95;4.05;;;;;;;-1.90;63.84;99753.28;5004848;28;20042;-48
2024/01/16 00:50:01;;;;;;;8.98;3.33;;;;;;;-1.89;63.89;99752.47;5004756;28;20049;-47
2024/01/16 00:52:29;;;;;;;26.65;6.10;;;;;;;-1.86;64.08;99742.47;5001054;28;20053;-50
2024/01/16 00:54:55;;;;;;;13.27;3.00;;;;;;;-1.85;63.66;99753.50;5004909;28;20084;-46
2024/01/16 00:57:22;;;;;;;7.72;2.83;;;;;;;-1.83;63.61;99742.59;5000932;28;20058;-53
2024/01/16 00:59:48;;;;;;;11.13;3.42;;;;;;;-1.85;64.48;99740.81;5006905;28;20148;-50
2024/01/16 01:02:15;;;;;;;5.07;2.75;;;;;;;-1.84;64.11;99740.88;5001044;28;20054;-45
2024/01/16 01:04:43;;;;;;;10.23;4.15;;;;;;;-1.83;64.12;99734.09;5003942;28;20104;-45
2024/01/16 01:07:13;;;;;;;20.77;6.70;;;;;;;-1.81;63.95;99729.97;4993451;28;20053;-48
2024/01/16 01:09:40;;;;;;;18.02;7.13;;;;;;;-1.79;64.45;99728.34;5005641;28;20558;-46
2024/01/16 01:12:07;;;;;;;14.63;4.55;;;;;;;-1.77;63.74;99731.84;5000095;28;20046;-46
2024/01/16 01:14:34;;;;;;;15.50;3.92;;;;;;;-1.74;64.08;99731.09;5001824;28;20073;-50
2024/01/16 01:17:01;;;;;;;19.13;6.60;;;;;;;-1.73;63.98;99732.81;5002978;28;20101;-45
2024/01/16 01:19:28;;;;;;;18.92;4.90;;;;;;;-1.73;64.28;99737.91;4999208;28;20763;-48
2024/01/16 01:21:54;;;;;;;9.00;2.47;;;;;;;-1.72;63.69;99739.66;5004335;28;22343;-49
2024/01/16 01:24:21;;;;;;;13.20;3.03;;;;;;;-1.72;64.37;99732.03;5001215;28;20104;-46
2024/01/16 01:26:48;;;;;;;13.10;4.47;;;;;;;-1.71;63.81;99736.31;5004664;28;20511;-45
2024/01/16 01:29:15;;;;;;;11.10;3.13;;;;;;;-1.72;64.36;99729.50;5006232;28;20064;-45
2024/01/16 01:31:45;;;;;;;6.75;3.10;;;;;;;-1.71;64.56;99728.69;5003517;28;20053;-48
2024/01/16 01:34:12;;;;;;;7.07;2.08;;;;;;;-1.71;64.44;99724.50;5000052;28;20054;-46
2024/01/16 01:36:39;;;;;;;7.20;2.50;;;;;;;-1.70;64.24;99725.34;5002561;28;20054;-46
2024/01/16 01:39:06;;;;;;;5.13;2.63;;;;;;;-1.69;64.11;99719.47;4999116;28;20494;-47
2024/01/16 01:41:32;;;;;;;5.97;2.80;;;;;;;-1.68;64.33;99721.22;5001347;28;20120;-46
2024/01/16 01:43:59;;;;;;;9.95;3.45;;;;;;;-1.67;64.00;99722.94;5001012;28;20042;-50
2024/01/16 01:46:27;;;;;;;6.75;1.95;;;;;;;-1.64;64.20;99722.19;5003025;28;20053;-48
2024/01/16 01:48:54;;;;;;;13.55;1.98;;;;;;;-1.65;64.41;99718.78;5005743;28;20042;-47
2024/01/16 01:51:23;;;;;;;5.35;1.88;;;;;;;-1.63;64.30;99717.16;5011282;28;20053;-51
2024/01/16 01:53:52;;;;;;;4.95;2.60;;;;;;;-1.61;63.90;99718.13;4996493;28;20066;-48
2024/01/16 01:56:20;;;;;;;9.20;3.58;;;;;;;-1.61;64.33;99718.13;5004583;28;20050;-52
2024/01/16 01:58:51;;;;;;;11.68;3.03;;;;;;;-1.59;64.25;99711.41;5001915;28;20053;-47
2024/01/16 02:01:20;;;;;;;9.48;3.33;;;;;;;-1.57;64.42;99704.75;5001472;28;20049;-46
2024/01/16 02:03:48;;;;;;;4.60;1.85;;;;;;;-1.55;64.50;99704.81;5003639;28;20061;-44
2024/01/16 02:06:16;;;;;;;8.75;3.72;;;;;;;-1.53;64.66;99702.31;5003409;28;20129;-46
2024/01/16 02:08:45;;;;;;;7.38;4.10;;;;;;;-1.52;64.71;99701.50;5001876;28;20052;-47
2024/01/16 02:11:12;;;;;;;5.32;2.30;;;;;;;-1.53;64.29;99695.56;5002148;28;20050;-43
2024/01/16 02:13:38;;;;;;;5.20;2.97;;;;;;;-1.52;64.39;99693.91;4999812;28;20417;-49
2024/01/16 02:16:05;;;;;;;6.53;3.20;;;;;;;-1.52;64.17;99697.28;5002222;28;20053;-49
2024/01/16 02:18:32;;;;;;;7.47;2.42;;;;;;;-1.52;64.55;99702.38;4999573;28;20069;-51
2024/01/16 02:21:01;;;;;;;9.27;3.50;;;;;;;-1.51;64.64;99693.97;5004011;28;20552;-44
2024/01/16 02:23:29;;;;;;;9.55;3.03;;;;;;;-1.53;64.18;99695.56;4998985;28;20049;-47
2024/01/16 02:25:55;;;;;;;5.25;2.47;;;;;;;-1.55;64.33;99695.50;5010221;28;20054;-48
2024/01/16 02:28:22;;;;;;;5.80;2.95;;;;;;;-1.57;64.45;99692.03;4997198;28;20061;-45
2024/01/16 02:30:49;;;;;;;6.53;2.83;;;;;;;-1.57;64.65;99694.56;4996862;28;20046;-49
2024/01/16 02:33:16;;;;;;;7.57;2.58;;;;;;;-1.59;64.52;99698.72;4997197;28;20058;-46
2024/01/16 02:35:43;;;;;;;3.92;1.90;;;;;;;-1.61;64.67;99692.72;4996408;28;20388;-52
2024/01/16 02:38:11;;;;;;;9.40;2.95;;;;;;;-1.62;65.07;99685.88;5000391;28;20172;-49
2024/01/16 02:40:38;;;;;;;11.68;4.57;;;;;;;-1.62;64.70;99685.88;4996496;28;20096;-48
2024/01/16 02:43:04;;;;;;;8.18;5.13;;;;;;;-1.62;64.71;99680.81;5000385;28;20111;-43
2024/01/16 02:45:32;;;;;;;9.63;5.20;;;;;;;-1.61;65.10;99672.41;5002095;28;20053;-45
2024/01/16 02:47:59;;;;;;;7.45;3.40;;;;;;;-1.60;64.54;99681.75;5000126;28;20145;-48
2024/01/16 02:50:26;;;;;;;7.25;3.60;;;;;;;-1.59;64.50;99678.41;4997138;28;20137;-50
2024/01/16 02:52:53;;;;;;;5.75;2.70;;;;;;;-1.59;64.83;99675.84;4998631;28;20042;-46
2024/01/16 02:55:21;;;;;;;7.50;3.22;;;;;;;-1.57;64.40;99679.34;4995972;28;20042;-43
2024/01/16 02:57:49;;;;;;;6.55;3.08;;;;;;;-1.56;64.51;99670.03;4996633;28;20691;-46
2024/01/16 03:00:17;;;;;;;5.88;2.95;;;;;;;-1.56;64.98;99665.81;5000958;28;20057;-43
2024/01/16 03:02:44;;;;;;;6.63;2.50;;;;;;;-1.55;64.85;99667.56;5002398;28;20046;-47
2024/01/16 03:05:11;;;;;;;7.30;3.33;;;;;;;-1.56;64.68;99670.91;5000335;28;20049;-42
2024/01/16 03:07:38;;;;;;;7.63;3.08;;;;;;;-1.56;64.69;99668.38;4997247;28;20046;-44
2024/01/16 03:10:04;;;;;;;14.55;4.20;;;;;;;-1.55;65.09;99669.25;5004725;28;20050;-44
2024/01/16 03:12:31;;;;;;;6.05;2.33;;;;;;;-1.53;65.05;99669.31;5006246;28;20042;-49
2024/01/16 03:14:58;;;;;;;4.85;2.33;;;;;;;-1.54;64.80;99668.44;4997432;28;20050;-49
2024/01/16 03:17:25;;;;;;;6.20;2.88;;;;;;;-1.56;64.81;99655.66;5002089;28;20994;-42
2024/01/16 03:19:52;;;;;;;6.53;2.92;;;;;;;-1.56;65.18;99660.75;5001565;28;20900;-45
2024/01/16 03:22:20;;;;;;;4.80;2.33;;;;;;;-1.58;65.04;99652.19;4994414;28;20054;-44
2024/01/16 03:24:47;;;;;;;6.80;4.95;;;;;;;-1.57;65.08;99655.59;4997600;28;20042;-48
2024/01/16 03:27:13;;;;;;;7.38;2.65;;;;;;;-1.58;65.06;99657.25;4997465;28;20628;-45
2024/01/16 03:29:40;;;;;;;9.98;3.28;;;;;;;-1.59;65.06;99652.16;4995669;28;20046;-46
2024/01/16 03:32:07;;;;;;;8.38;3.03;;;;;;;-1.60;65.64;99650.38;4996521;28;20072;-50
2024/01/16 03:34:33;;;;;;;8.60;3.38;;;;;;;-1.61;65.30;99649.53;4993984;28;20054;-44
2024/01/16 03:37:00;;;;;;;7.88;3.63;;;;;;;-1.63;65.35;99642.63;5000113;28;20129;-54
2024/01/16 03:39:27;;;;;;;6.95;2.83;;;;;;;-1.64;65.16;99641.78;5000090;28;20138;-48
2024/01/16 03:41:54;;;;;;;8.63;3.65;;;;;;;-1.64;65.33;99636.72;4999133;28;20514;-43
2024/01/16 03:44:40;;;;;;;7.57;3.22;;;;;;;-1.63;65.17;99646.06;4995601;28;20042;-47
2024/01/16 03:47:07;;;;;;;8.43;3.03;;;;;;;-1.64;65.86;99644.34;4996956;28;20058;-48
2024/01/16 03:49:35;;;;;;;9.45;3.58;;;;;;;-1.64;65.55;99646.00;5000325;28;20123;-47
2024/01/16 03:52:06;;;;;;;5.72;2.45;;;;;;;-1.65;66.11;99640.06;5001085;28;20062;-48
2024/01/16 03:54:32;;;;;;;8.00;2.60;;;;;;;-1.65;65.75;99640.06;4999591;28;20050;-50
2024/01/16 03:56:59;;;;;;;9.10;3.30;;;;;;;-1.65;65.94;99634.09;5002738;28;20042;-48
2024/01/16 03:59:26;;;;;;;5.53;2.53;;;;;;;-1.65;65.69;99634.09;4998581;28;20050;-51
2024/01/16 04:01:52;;;;;;;9.50;5.43;;;;;;;-1.65;66.17;99632.44;5004535;28;20173;-46
2024/01/16 04:04:19;;;;;;;6.78;2.88;;;;;;;-1.65;66.33;99632.44;5012336;28;20046;-53
2024/01/16 04:06:46;;;;;;;8.05;3.17;;;;;;;-1.64;66.51;99631.63;4995639;28;20120;-45
2024/01/16 04:09:14;;;;;;;5.82;2.50;;;;;;;-1.63;66.23;99624.88;5000278;28;20388;-44
2024/01/16 04:11:41;;;;;;;6.53;2.92;;;;;;;-1.62;66.51;99634.25;5003794;28;20050;-46
2024/01/16 04:14:08;;;;;;;9.82;3.80;;;;;;;-1.61;66.61;99615.66;4999258;28;20050;-50
2024/01/16 04:16:34;;;;;;;8.15;4.30;;;;;;;-1.61;66.84;99611.44;4998420;28;20062;-42
2024/01/16 04:19:01;;;;;;;12.32;3.20;;;;;;;-1.58;66.45;99605.63;5001521;28;20057;-42
2024/01/16 04:21:28;;;;;;;6.30;2.42;;;;;;;-1.57;66.43;99608.22;5000048;28;20042;-45
2024/01/16 04:23:54;;;;;;;3.63;1.80;;;;;;;-1.58;66.83;99619.16;4998644;28;20053;-44
2024/01/16 04:26:21;;;;;;;5.30;3.53;;;;;;;-1.59;66.65;99604.72;4994730;28;20046;-46
2024/01/16 04:28:49;;;;;;;6.50;2.72;;;;;;;-1.56;66.78;99599.78;4999744;28;20045;-48
2024/01/16 04:31:19;;;;;;;3.85;2.15;;;;;;;-1.55;66.92;99596.44;4997981;28;20050;-47
2024/01/16 04:33:45;;;;;;;2.13;1.42;;;;;;;-1.57;67.18;99598.06;5005618;28;20728;-43
2024/01/16 04:36:13;;;;;;;4.93;3.33;;;;;;;-1.55;67.13;99596.44;5006945;28;20133;-45
2024/01/16 04:38:40;;;;;;;5.65;3.20;;;;;;;-1.53;67.27;99582.94;5007632;28;20086;-48
2024/01/16 04:41:07;;;;;;;7.18;2.95;;;;;;;-1.53;67.32;99588.03;5010425;28;20050;-43
2024/01/16 04:43:34;;;;;;;5.57;2.00;;;;;;;-1.53;67.53;99577.88;5006560;28;20081;-50
2024/01/16 04:46:00;;;;;;;13.32;4.38;;;;;;;-1.51;67.08;99577.09;5006246;28;20050;-43
2024/01/16 04:48:29;;;;;;;6.15;2.30;;;;;;;-1.49;67.08;99579.72;5007669;28;20050;-46
2024/01/16 04:50:56;;;;;;;7.55;2.95;;;;;;;-1.48;66.91;99568.72;5003552;28;20078;-46
2024/01/16 04:53:25;;;;;;;4.43;2.63;;;;;;;-1.46;66.72;99569.63;5003268;28;20046;-46
2024/01/16 04:55:52;;;;;;;4.45;3.63;;;;;;;-1.43;67.29;99557.06;4995888;28;20050;-45
2024/01/16 04:58:19;;;;;;;4.28;2.22;;;;;;;-1.42;67.28;99562.19;5001100;28;20089;-50
2024/01/16 05:00:46;;;;;;;7.18;3.97;;;;;;;-1.40;66.79;99553.75;5003678;28;20132;-44
2024/01/16 05:03:13;;;;;;;5.78;3.70;;;;;;;-1.39;67.30;99556.38;5004943;28;20125;-45
2024/01/16 05:05:40;;;;;;;5.68;3.97;;;;;;;-1.39;66.80;99555.53;4999860;28;20525;-47
2024/01/16 05:08:08;;;;;;;6.88;3.00;;;;;;;-1.38;67.10;99560.66;5005716;28;20064;-43
2024/01/16 05:10:34;;;;;;;8.52;2.85;;;;;;;-1.39;67.08;99552.97;5004548;28;20156;-49
2024/01/16 05:13:01;;;;;;;2.90;1.17;;;;;;;-1.39;67.42;99556.38;5008413;28;20757;-45
2024/01/16 05:15:28;;;;;;;6.60;2.28;;;;;;;-1.39;67.38;99551.28;5001156;28;20057;-45
2024/01/16 05:17:56;;;;;;;4.97;1.77;;;;;;;-1.37;67.41;99551.34;4999862;28;20052;-46
2024/01/16 05:20:22;;;;;;;5.43;1.75;;;;;;;-1.40;67.13;99541.94;5004836;28;20584;-47
2024/01/16 05:22:49;;;;;;;9.43;2.13;;;;;;;-1.38;66.56;99547.97;5006273;28;20054;-47
2024/01/16 05:25:17;;;;;;;10.15;2.38;;;;;;;-1.37;67.19;99544.59;5004914;28;20050;-46
2024/01/16 05:27:44;;;;;;;6.35;2.25;;;;;;;-1.36;67.27;99541.25;5001022;28;20058;-45
2024/01/16 05:30:12;;;;;;;4.38;1.65;;;;;;;-1.37;67.11;99534.44;5002058;28;20048;-49
2024/01/16 05:32:41;;;;;;;6.18;3.63;;;;;;;-1.36;67.24;99535.28;5003967;28;20056;-47
2024/01/16 05:35:09;;;;;;;10.73;3.80;;;;;;;-1.34;67.48;99538.75;4999162;28;20045;-48
2024/01/16 05:37:36;;;;;;;5.50;2.15;;;;;;;-1.34;67.08;99534.56;5000425;28;20068;-43
2024/01/16 05:40:07;;;;;;;5.63;2.97;;;;;;;-1.33;67.19;99536.28;4997779;28;20053;-49
2024/01/16 05:42:33;;;;;;;;;;;;;;;-1.33;67.33;99533.75;5000273;28;20060;-48
2024/01/16 05:45:00;;;;;;;4.50;1.90;;;;;;;-1.32;67.11;99532.94;4997907;28;19922;-46
2024/01/16 05:47:27;;;;;;;7.20;2.15;;;;;;;-1.28;67.22;99536.47;4994913;28;20061;-47
2024/01/16 05:49:55;;;;;;;8.15;2.05;;;;;;;-1.26;67.22;99536.50;4997126;28;20049;-45
2024/01/16 05:52:22;;;;;;;3.92;3.20;;;;;;;-1.23;67.53;99536.63;4999667;28;20520;-43
2024/01/16 05:54:49;;;;;;;7.50;3.38;;;;;;;-1.21;67.22;99522.31;5000345;28;20050;-49
2024/01/16 05:57:16;;;;;;;4.18;1.58;;;;;;;-1.19;67.02;99518.13;5004589;28;20073;-49
2024/01/16 05:59:42;;;;;;;5.53;3.67;;;;;;;-1.17;67.15;99519.06;4993485;28;20089;-51
2024/01/16 06:02:10;;;;;;;5.40;2.28;;;;;;;-1.16;67.21;99513.16;4995662;28;20054;-46
2024/01/16 06:04:37;;;;;;;6.85;4.20;;;;;;;-1.14;66.96;99511.53;4999962;28;20139;-45
2024/01/16 06:07:06;;;;;;;4.13;2.28;;;;;;;-1.14;67.32;99521.72;5002987;28;20054;-52
2024/01/16 06:09:37;;;;;;;5.95;2.22;;;;;;;-1.14;67.36;99513.22;5002658;28;20138;-47
2024/01/16 06:12:05;;;;;;;6.45;2.40;;;;;;;-1.13;67.33;99513.28;4999755;28;20054;-48
2024/01/16 06:14:32;;;;;;;5.15;2.35;;;;;;;-1.12;67.37;99504.81;5006730;28;20050;-47
2024/01/16 06:16:59;;;;;;;4.65;3.50;;;;;;;-1.11;67.19;99510.78;4998762;28;20113;-43
2024/01/16 06:19:26;;;;;;;2.80;1.42;;;;;;;-1.13;67.12;99513.28;5005990;28;20060;-45
2024/01/16 06:21:53;;;;;;;3.00;2.47;;;;;;;-1.15;67.71;99508.94;5002686;28;20096;-47
2024/01/16 06:24:20;;;;;;;5.35;1.13;;;;;;;-1.19;67.56;99495.25;5004258;28;20042;-49
2024/01/16 06:26:46;;;;;;;6.75;1.63;;;;;;;-1.17;67.80;99498.72;4999363;28;20077;-46
2024/01/16 06:29:15;;;;;;;4.75;3.42;;;;;;;-1.19;67.32;99492.72;4999417;28;20057;-42
2024/01/16 06:31:56;;;;;;;3.13;2.92;;;;;;;-1.17;67.65;99488.56;4997710;28;20046;-47
2024/01/16 06:34:23;;;;;;;6.57;3.13;;;;;;;-1.15;67.36;99492.00;4997505;28;20053;-48
2024/01/16 06:36:50;;;;;;;3.58;2.83;;;;;;;-1.16;67.76;99487.75;5001992;28;20056;-48
2024/01/16 06:39:17;;;;;;;2.58;2.20;;;;;;;-1.14;67.38;99495.41;5000412;28;20425;-49
2024/01/16 06:41:44;;;;;;;3.17;1.33;;;;;;;-1.18;67.94;99490.22;4995007;28;20050;-48
2024/01/16 06:44:11;;;;;;;3.10;1.92;;;;;;;-1.19;67.49;99485.97;5002077;28;20042;-46
2024/01/16 06:46:38;;;;;;;3.17;2.72;;;;;;;-1.19;67.51;99487.63;4996763;28;20053;-48
2024/01/16 06:49:04;;;;;;;3.30;1.33;;;;;;;-1.19;67.91;99488.50;4999821;28;20499;-44
2024/01/16 06:51:31;;;;;;;8.88;1.70;;;;;;;-1.19;67.59;99487.63;5000156;28;20046;-50
2024/01/16 06:53:58;;;;;;;6.93;1.30;;;;;;;-1.19;67.74;99487.63;5001073;28;20057;-47
2024/01/16 06:56:25;;;;;;;2.00;1.73;;;;;;;-1.23;68.21;99485.78;4996097;28;20049;-48
2024/01/16 06:58:53;;;;;;;7.03;3.90;;;;;;;-1.19;67.72;99488.50;4999852;28;20104;-50
2024/01/16 07:01:19;;;;;;;6.05;2.83;;;;;;;-1.19;68.46;99487.63;5002144;28;20052;-46
2024/01/16 07:03:46;;;;;;;3.13;2.88;;;;;;;-1.20;68.01;99493.53;4994954;28;20054;-46
2024/01/16 07:06:14;;;;;;;1.10;1.00;;;;;;;-1.19;67.85;99483.41;4997807;28;20064;-47
2024/01/16 07:08:41;;;;;;;2.22;1.38;;;;;;;-1.18;68.31;99484.28;4994773;28;20046;-46
2024/01/16 07:11:08;;;;;;;1.77;1.15;;;;;;;-1.20;67.87;99483.34;4997686;28;20111;-49
2024/01/16 07:13:35;;;;;;;8.93;1.40;;;;;;;-1.19;67.78;99482.53;4997354;28;20108;-48
2024/01/16 07:16:02;;;;;;;2.67;1.15;;;;;;;-1.18;67.99;99469.03;4998613;28;20053;-49
2024/01/16 07:18:28;;;;;;;2.20;1.35;;;;;;;-1.21;68.18;99468.94;4996891;28;20064;-48
2024/01/16 07:20:55;;;;;;;2.53;1.77;;;;;;;-1.20;68.24;99465.56;5003829;28;20056;-43
2024/01/16 07:23:22;;;;;;;4.45;1.17;;;;;;;-1.18;67.99;99463.97;5005249;28;20140;-48
2024/01/16 07:25:49;;;;;;;2.28;1.30;;;;;;;-1.20;68.03;99455.41;5000645;28;20461;-48
2024/01/16 07:28:16;;;;;;;4.03;2.70;;;;;;;-1.19;67.78;99459.66;4999333;28;20049;-46
2024/01/16 07:30:42;;;;;;;4.22;3.08;;;;;;;-1.16;68.11;99452.16;4999991;28;20050;-45
2024/01/16 07:33:09;;;;;;;4.10;1.38;;;;;;;-1.17;68.33;99455.53;5002490;28;20160;-50
2024/01/16 07:35:36;;;;;;;4.50;2.17;;;;;;;-1.16;68.00;99444.53;4998636;28;20046;-42
2024/01/16 07:38:03;;;;;;;3.08;1.50;;;;;;;-1.14;68.13;99460.72;4998147;28;20661;-47
2024/01/16 07:40:32;;;;;;;2.50;1.13;;;;;;;-1.12;68.20;99448.91;4997387;28;20124;-48
2024/01/16 07:43:01;;;;;;;2.78;1.00;;;;;;;-1.11;68.18;99453.19;4996902;28;20050;-48
2024/01/16 07:45:28;;;;;;;1.88;1.10;;;;;;;-1.09;67.91;99448.16;4991699;28;20052;-46
2024/01/16 07:47:54;;;;;;;2.88;0.73;;;;;;;-1.08;68.38;99450.75;4997813;28;20051;-54
2024/01/16 07:50:21;;;;;;;1.13;0.63;;;;;;;-1.04;68.06;99456.81;4993750;28;20045;-48
2024/01/16 07:52:48;;;;;;;3.15;0.50;;;;;;;-1.04;68.49;99452.56;4993457;28;20074;-46
2024/01/16 07:55:15;;;;;;;4.75;0.70;;;;;;;-1.00;68.30;99450.16;4990823;28;20055;-45
2024/01/16 07:57:41;;;;;;;3.10;1.35;;;;;;;-0.97;68.19;99445.19;4996457;28;20061;-49
2024/01/16 08:00:11;;;;;;;2.35;2.15;;;;;;;-0.97;67.94;99437.53;4996213;28;20058;-49
2024/01/16 08:02:38;;;;;;;1.83;1.08;;;;;;;-0.95;67.81;99441.03;4994289;28;20050;-43
2024/01/16 08:05:05;;;;;;;7.85;0.93;;;;;;;-0.91;68.00;99445.41;4990236;28;20511;-48
2024/01/16 08:07:32;;;;;;;3.65;1.92;;;;;;;-0.92;68.03;99441.97;4997620;28;20081;-49
2024/01/16 08:09:59;;;;;;;2.03;0.90;;;;;;;-0.91;68.27;99435.22;4999870;28;20042;-48
2024/01/16 08:12:26;;;;;;;3.55;1.17;;;;;;;-0.89;67.82;99435.25;4999296;28;20057;-44
2024/01/16 08:14:52;;;;;;;1.20;0.70;;;;;;;-0.87;68.15;99429.44;5004745;28;20814;-46
2024/01/16 08:17:20;;;;;;;1.67;1.58;;;;;;;-0.84;68.13;99432.06;4996708;28;20070;-48
2024/01/16 08:19:47;;;;;;;1.50;0.60;;;;;;;-0.78;68.05;99424.63;4996727;28;20064;-48
2024/01/16 08:22:14;;;;;;;3.33;0.50;;;;;;;-0.74;68.69;99422.19;4996157;28;20056;-49
2024/01/16 08:24:40;;;;;;;1.05;0.88;;;;;;;-0.67;68.05;99421.59;4997964;28;20055;-47
2024/01/16 08:27:07;;;;;;;2.88;1.83;;;;;;;-0.63;67.65;99417.44;4998047;28;20419;-47
2024/01/16 08:29:34;;;;;;;3.83;1.13;;;;;;;-0.65;67.91;99425.03;4997280;28;20058;-48
2024/01/16 08:32:01;;;;;;;4.57;2.75;;;;;;;-0.67;67.91;99426.69;5000834;28;20073;-42
2024/01/16 08:34:28;;;;;;;3.40;1.50;;;;;;;-0.67;67.99;99426.69;4998104;28;20105;-43
2024/01/16 08:36:56;;;;;;;1.73;0.70;;;;;;;-0.69;68.09;99428.28;5007573;28;20092;-48
2024/01/16 08:39:24;;;;;;;2.20;1.15;;;;;;;-0.67;68.07;99421.59;5003641;28;20138;-47
2024/01/16 08:41:51;;;;;;;1.55;0.75;;;;;;;-0.69;67.96;99425.75;5004887;28;20045;-48
2024/01/16 08:44:18;;;;;;;7.68;2.67;;;;;;;-0.68;68.40;99424.94;5010391;28;20045;-44
2024/01/16 08:46:44;;;;;;;5.75;0.90;;;;;;;-0.69;68.20;99413.03;5000850;28;20057;-49
2024/01/16 08:49:13;;;;;;;8.65;3.45;;;;;;;-0.69;67.64;99413.91;5007867;28;20081;-46
2024/01/16 08:51:45;;;;;;;2.60;1.17;;;;;;;-0.69;68.12;99416.44;5005407;28;20152;-52
2024/01/16 08:54:12;;;;;;;6.18;1.10;;;;;;;-0.67;67.95;99416.50;5007097;28;20049;-44
2024/01/16 08:56:38;;;;;;;8.02;1.05;;;;;;;-0.68;68.63;99414.75;4998074;28;20078;-50
2024/01/16 08:59:05;;;;;;;3.22;2.92;;;;;;;-0.68;68.36;99415.63;5006701;28;20045;-46
2024/01/16 09:01:32;;;;;;;4.18;2.90;;;;;;;-0.70;68.72;99402.00;4999884;28;20435;-44
2024/01/16 09:03:58;;;;;;;1.65;0.88;;;;;;;-0.66;68.52;99400.41;5004593;28;20045;-44
2024/01/16 09:06:27;;;;;;;1.20;0.60;;;;;;;-0.66;68.37;99397.88;5003635;28;20054;-43
2024/01/16 09:08:53;;;;;;;2.40;2.22;;;;;;;-0.66;68.39;99398.75;4996764;28;20527;-49
2024/01/16 09:11:20;;;;;;;4.35;3.00;;;;;;;-0.66;68.30;99391.13;4997524;28;20157;-52
2024/01/16 09:13:47;;;;;;;2.88;2.22;;;;;;;-0.63;68.34;99397.97;5001039;28;20074;-47
2024/01/16 09:16:14;;;;;;;3.22;2.50;;;;;;;-0.60;68.25;99393.00;4995995;28;20047;-50
2024/01/16 09:18:41;;;;;;;1.95;0.65;;;;;;;-0.59;68.36;99402.34;4996000;28;20046;-47
2024/01/16 09:21:08;;;;;;;3.50;3.08;;;;;;;-0.56;67.61;99399.91;4998702;28;20050;-43
2024/01/16 09:23:34;;;;;;;2.80;1.27;;;;;;;-0.56;68.24;99392.28;4998446;28;20046;-42
2024/01/16 09:26:01;;;;;;;4.80;1.98;;;;;;;-0.49;68.08;99387.38;4993150;28;20259;-51
2024/01/16 09:28:28;;;;;;;9.65;2.30;;;;;;;-0.46;68.47;99384.94;4996784;28;20046;-44
2024/01/16 09:30:56;;;;;;;9.55;2.55;;;;;;;-0.40;67.91;99380.03;4996754;28;20054;-46
2024/01/16 09:33:25;;;;;;;2.97;2.70;;;;;;;-0.36;68.20;99381.84;4998841;28;20418;-52
2024/01/16 09:35:52;;;;;;;5.22;2.72;;;;;;;-0.33;67.88;99376.88;5002434;28;20562;-43
2024/01/16 09:38:19;;;;;;;4.88;1.90;;;;;;;-0.28;67.73;99377.84;5014008;28;20046;-51
2024/01/16 09:40:50;;;;;;;5.82;2.72;;;;;;;-0.23;68.42;99377.13;5001181;28;20523;-47
2024/01/16 09:43:17;;;;;;;2.78;2.55;;;;;;;-0.22;68.10;99376.31;4994408;28;20423;-48
2024/01/16 09:45:46;;;;;;;2.30;0.88;;;;;;;-0.18;68.17;99375.59;5001521;28;20061;-48
2024/01/16 09:48:14;;;;;;;4.80;1.23;;;;;;;-0.15;68.75;99374.00;5000705;28;20061;-51
2024/01/16 09:50:41;;;;;;;4.97;2.78;;;;;;;-0.13;68.57;99377.44;4995874;28;20061;-52
2024/01/16 09:53:07;;;;;;;2.03;1.20;;;;;;;-0.05;68.48;99372.59;5003179;28;20120;-45
2024/01/16 09:55:34;;;;;;;4.40;2.78;;;;;;;0.39;68.84;99366.16;5003019;28;20046;-49
2024/01/16 09:58:03;;;;;;;3.00;1.60;;;;;;;1.04;69.14;99363.59;4998261;28;20053;-48
2024/01/16 10:00:31;;;;;;;7.38;1.92;;;;;;;1.28;67.17;99359.06;5000133;28;20470;-47
2024/01/16 10:02:59;;;;;;;5.13;4.07;;;;;;;1.59;66.37;99373.38;4995265;28;20139;-46
2024/01/16 10:05:28;;;;;;;3.42;1.92;;;;;;;2.26;67.18;99373.09;4994484;28;20050;-50
2024/01/16 10:07:56;;;;;;;5.05;3.42;;;;;;;3.30;67.31;99376.66;4996748;28;20046;-46
2024/01/16 10:10:28;;;;;;;4.18;3.80;;;;;;;4.27;66.60;99375.44;5014141;28;20050;-46
2024/01/16 10:13:14;;;;;;;6.72;3.45;;;;;;;4.86;65.11;99368.38;4997438;28;20057;-52
2024/01/16 10:15:40;;;;;;;4.72;2.95;;;;;;;5.56;64.18;99368.09;4995291;28;20050;-48
2024/01/16 10:18:22;;;;;;;4.50;3.28;;;;;;;6.21;63.13;99356.47;4997297;28;20053;-49
2024/01/16 10:20:49;;;;;;;4.80;3.95;;;;;;;6.62;61.85;99355.72;5000147;28;20546;-52
2024/01/16 10:23:34;;;;;;;4.18;3.28;;;;;;;7.28;61.53;99355.78;4989031;28;20057;-46
2024/01/16 10:26:18;;;;;;;8.20;3.75;;;;;;;7.55;60.89;99354.03;4996781;28;20050;-48
2024/01/16 10:28:45;;;;;;;10.18;5.13;;;;;;;7.54;60.74;99350.59;4995775;28;20494;-49
2024/01/16 10:31:14;;;;;;;8.10;4.45;;;;;;;7.29;59.04;99347.19;4998374;28;20100;-46
2024/01/16 10:33:41;;;;;;;6.05;2.92;;;;;;;7.58;59.20;99356.63;4997016;28;20133;-48
2024/01/16 10:38:45;;;;;;;3.65;1.52;;;;;;;8.80;57.67;99338.09;5033473;27;20399;-49
2024/01/16 10:41:14;;;;;;;8.25;2.22;;;;;;;9.35;57.46;99330.75;5001735;28;20042;-47
2024/01/16 10:43:42;;;;;;;3.38;1.83;;;;;;;9.80;56.84;99326.88;5035964;28;20502;-52
2024/01/16 10:46:17;;;;;;;3.45;1.60;;;;;;;10.22;55.31;99329.81;5017966;28;20168;-45
2024/01/16 10:48:59;;;;;;;3.47;1.50;;;;;;;10.38;54.34;99324.44;5028622;28;20513;-51
2024/01/16 10:51:27;;;;;;;3.60;1.60;;;;;;;10.39;53.46;99326.13;5019736;28;20087;-48
2024/01/16 10:53:58;;;;;;;3.65;1.70;;;;;;;10.05;52.41;99316.22;5024204;28;20060;-50
2024/01/16 10:56:28;;;;;;;6.15;2.67;;;;;;;9.57;51.66;99305.56;5052266;28;20054;-48
2024/01/16 11:01:40;;;;;;;6.50;1.88;;;;;;;8.57;53.40;99297.78;5027564;28;20898;-44
2024/01/16 11:04:07;;;;;;;4.60;2.22;;;;;;;8.39;54.66;99297.00;5002574;28;20046;-47
2024/01/16 11:06:36;;;;;;;6.78;1.85;;;;;;;8.29;54.63;99297.91;4992504;28;20081;-47
2024/01/16 11:09:04;;;;;;;3.40;1.67;;;;;;;8.16;55.02;99295.41;5002054;28;20050;-50
2024/01/16 11:11:34;;;;;;;3.88;1.45;;;;;;;8.00;54.76;99288.63;4995049;28;20055;-43
2024/01/16 11:14:03;;;;;;;5.60;1.90;;;;;;;7.77;55.34;99287.81;5007530;28;20480;-49
2024/01/16 11:16:32;;;;;;;6.30;2.30;;;;;;;7.53;54.97;99291.34;4999486;28;20180;-46
2024/01/16 11:18:58;;;;;;;5.55;1.42;;;;;;;7.31;56.12;99283.66;4999225;28;20057;-46
2024/01/16 11:21:46;;;;;;;3.13;1.67;;;;;;;7.04;55.28;99277.69;4977743;28;20129;-51
2024/01/16 11:24:14;;;;;;;7.20;2.17;;;;;;;6.87;56.83;99278.56;4992052;28;20046;-49
2024/01/16 11:26:43;;;;;;;3.08;1.38;;;;;;;6.67;56.02;99276.84;5000044;28;20059;-46
2024/01/16 11:32:09;;;;;;;5.22;1.45;;;;;;;6.33;57.32;99271.63;5041279;28;21095;-48
2024/01/16 11:34:55;;;;;;;3.75;1.25;;;;;;;6.19;56.28;99273.31;4993058;28;20068;-44
2024/01/16 11:37:28;;;;;;;3.40;1.35;;;;;;;6.06;57.78;99259.56;4991766;28;20372;-50
2024/01/16 11:42:55;;;;;;;3.38;1.65;;;;;;;5.78;58.96;99242.31;5013467;28;20429;-46
2024/01/16 11:48:20;;;;;;;5.30;2.50;;;;;;;5.87;58.19;99244.91;5040694;27;20410;-49
2024/01/16 11:50:48;;;;;;;5.03;2.85;;;;;;;5.96;58.46;99240.63;5006351;28;20058;-44